createdAt,value
2019-05-25T00:01:19.112Z,0.30
2019-05-25T00:04:09.329Z,0.30
2019-05-25T00:06:57.301Z,0.40
2019-05-25T00:09:48.359Z,0.70
2019-05-25T00:12:35.249Z,0.30
2019-05-25T00:15:22.923Z,0.30
2019-05-25T00:18:10.949Z,0.40
2019-05-25T00:20:58.919Z,0.30
2019-05-25T00:23:46.497Z,0.50
2019-05-25T00:26:33.997Z,0.30
2019-05-25T00:29:21.967Z,0.30
2019-05-25T00:32:14.198Z,0.23
2019-05-25T00:34:59.718Z,0.40
2019-05-25T00:37:47.915Z,0.37
2019-05-25T00:40:36.405Z,0.30
2019-05-25T00:43:24.406Z,0.40
2019-05-25T00:46:29.738Z,0.40
2019-05-25T00:49:18.358Z,0.40
2019-05-25T00:52:06.928Z,0.50
2019-05-25T00:54:54.569Z,0.43
2019-05-25T00:57:42.479Z,0.50
2019-05-25T01:00:33.540Z,0.40
2019-05-25T01:03:21.279Z,0.40
2019-05-25T01:06:09.017Z,0.40
2019-05-25T01:08:59.533Z,0.40
2019-05-25T01:11:47.408Z,0.33
2019-05-25T01:14:35.989Z,0.57
2019-05-25T01:17:24.531Z,0.40
2019-05-25T01:20:12.636Z,0.40
2019-05-25T01:23:00.591Z,0.50
2019-05-25T01:25:48.284Z,0.63
2019-05-25T01:28:42.567Z,0.47
2019-05-25T01:31:32.362Z,0.40
2019-05-25T01:34:20.752Z,0.50
2019-05-25T01:37:11.286Z,0.50
2019-05-25T01:39:59.319Z,0.50
2019-05-25T01:42:47.027Z,0.60
2019-05-25T01:45:35.099Z,0.60
2019-05-25T01:48:26.181Z,0.50
2019-05-25T01:51:14.388Z,0.30
2019-05-25T01:54:05.854Z,0.50
2019-05-25T01:56:53.950Z,0.40
2019-05-25T01:59:41.417Z,0.50
2019-05-25T02:02:31.044Z,0.50
2019-05-25T02:05:18.771Z,0.50
2019-05-25T02:08:10.149Z,0.50
2019-05-25T02:10:58.364Z,0.53
2019-05-25T02:13:46.397Z,0.53
2019-05-25T02:16:43.549Z,0.40
2019-05-25T02:19:31.560Z,0.43
2019-05-25T02:22:19.170Z,0.50
2019-05-25T02:25:16.973Z,0.40
2019-05-25T02:27:56.193Z,0.50
2019-05-25T02:30:44.624Z,0.40
2019-05-25T02:33:32.465Z,0.50
2019-05-25T02:36:20.991Z,0.70
2019-05-25T02:39:27.964Z,0.53
2019-05-25T02:42:14.902Z,0.63
2019-05-25T02:45:03.079Z,0.50
2019-05-25T02:47:50.608Z,0.60
2019-05-25T02:50:38.576Z,0.63
2019-05-25T02:53:26.543Z,0.60
2019-05-25T02:56:13.848Z,0.60
2019-05-25T02:59:01.592Z,0.70
2019-05-25T03:01:50.360Z,0.40
2019-05-25T03:04:38.095Z,0.60
2019-05-25T03:07:26.585Z,0.80
2019-05-25T03:10:15.102Z,0.50
2019-05-25T03:13:04.187Z,0.50
2019-05-25T03:15:51.895Z,0.47
2019-05-25T03:18:39.874Z,0.70
2019-05-25T03:21:27.728Z,0.70
2019-05-25T03:24:15.679Z,0.50
2019-05-25T03:27:03.711Z,0.63
2019-05-25T03:29:51.291Z,0.60
2019-05-25T03:32:38.849Z,0.60
2019-05-25T03:35:26.337Z,0.60
2019-05-25T03:38:14.306Z,0.70
2019-05-25T03:41:02.182Z,0.60
2019-05-25T03:43:50.074Z,0.60
2019-05-25T03:46:37.636Z,0.50
2019-05-25T03:49:25.187Z,0.53
2019-05-25T03:52:13.255Z,0.60
2019-05-25T03:55:00.953Z,0.50
2019-05-25T03:57:48.211Z,0.60
2019-05-25T04:00:37.335Z,0.40
2019-05-25T04:03:30.091Z,0.60
2019-05-25T04:06:19.239Z,0.60
2019-05-25T04:09:06.868Z,0.60
2019-05-25T04:11:54.558Z,0.50
2019-05-25T04:14:42.592Z,0.60
2019-05-25T04:17:30.203Z,0.50
2019-05-25T04:20:17.777Z,0.50
2019-05-25T04:23:05.856Z,0.47
2019-05-25T04:25:53.490Z,0.60
2019-05-25T04:28:41.712Z,0.50
2019-05-25T04:31:32.364Z,0.60
2019-05-25T04:34:19.053Z,0.50
2019-05-25T04:37:35.485Z,0.53
2019-05-25T04:40:25.844Z,0.60
2019-05-25T04:43:13.782Z,0.60
2019-05-25T04:46:00.926Z,0.60
2019-05-25T04:48:49.167Z,0.70
2019-05-25T04:51:37.352Z,0.60
2019-05-25T04:54:25.232Z,0.63
2019-05-25T04:57:14.169Z,0.70
2019-05-25T05:00:01.808Z,0.70
2019-05-25T05:02:49.757Z,0.77
2019-05-25T05:05:39.089Z,0.73
2019-05-25T05:08:27.079Z,0.90
2019-05-25T05:11:14.687Z,0.90
2019-05-25T05:14:03.047Z,0.97
2019-05-25T05:16:50.515Z,0.90
2019-05-25T05:19:37.940Z,1.00
2019-05-25T05:22:25.611Z,1.07
2019-05-25T05:25:14.124Z,0.70
2019-05-25T05:28:01.778Z,0.60
2019-05-25T05:30:49.615Z,0.50
2019-05-25T05:33:37.247Z,0.50
2019-05-25T05:36:27.647Z,0.80
2019-05-25T05:39:16.854Z,0.63
2019-05-25T05:42:04.632Z,0.80
2019-05-25T05:44:53.660Z,0.50
2019-05-25T05:47:41.630Z,0.97
2019-05-25T05:50:30.743Z,1.13
2019-05-25T05:53:20.019Z,1.13
2019-05-25T05:56:07.627Z,1.30
2019-05-25T05:58:55.518Z,1.23
2019-05-25T06:01:43.478Z,1.70
2019-05-25T06:04:31.224Z,1.77
2019-05-25T06:07:19.231Z,1.83
2019-05-25T06:10:06.699Z,2.00
2019-05-25T06:12:54.481Z,1.90
2019-05-25T06:15:42.222Z,1.60
2019-05-25T06:18:29.623Z,1.70
2019-05-25T06:21:17.513Z,1.60
2019-05-25T06:24:05.695Z,1.60
2019-05-25T06:26:53.741Z,1.70
2019-05-25T06:29:41.757Z,1.60
2019-05-25T06:32:29.521Z,1.53
2019-05-25T06:35:17.512Z,1.57
2019-05-25T06:38:04.861Z,1.67
2019-05-25T06:40:52.602Z,1.30
2019-05-25T06:43:39.932Z,0.97
2019-05-25T06:46:28.115Z,1.60
2019-05-25T06:49:15.360Z,1.50
2019-05-25T06:52:02.862Z,1.30
2019-05-25T06:54:50.510Z,1.50
2019-05-25T06:57:43.034Z,1.30
2019-05-25T07:00:27.576Z,1.40
2019-05-25T07:03:15.293Z,1.20
2019-05-25T07:06:02.558Z,1.40
2019-05-25T07:08:50.348Z,1.67
2019-05-25T07:11:38.212Z,1.63
2019-05-25T07:14:26.002Z,1.57
2019-05-25T07:17:13.190Z,1.60
2019-05-25T07:20:00.255Z,1.50
2019-05-25T07:22:47.483Z,1.43
2019-05-25T07:25:35.254Z,1.40
2019-05-25T07:28:23.107Z,1.30
2019-05-25T07:31:10.826Z,1.30
2019-05-25T07:33:58.050Z,1.20
2019-05-25T07:36:45.535Z,1.27
2019-05-25T07:39:32.772Z,1.17
2019-05-25T07:42:20.516Z,1.20
2019-05-25T07:45:08.759Z,1.33
2019-05-25T07:47:56.628Z,1.07
2019-05-25T07:50:44.059Z,1.10
2019-05-25T07:53:31.617Z,1.20
2019-05-25T07:56:19.178Z,1.20
2019-05-25T07:59:07.302Z,1.10
2019-05-25T08:01:54.966Z,1.00
2019-05-25T08:04:42.539Z,0.97
2019-05-25T08:07:29.976Z,1.10
2019-05-25T08:10:17.778Z,1.37
2019-05-25T08:13:05.310Z,1.53
2019-05-25T08:15:52.834Z,1.10
2019-05-25T08:18:40.833Z,1.33
2019-05-25T08:21:27.978Z,1.00
2019-05-25T08:24:15.396Z,0.90
2019-05-25T08:27:03.333Z,1.10
2019-05-25T08:29:50.821Z,0.90
2019-05-25T08:32:38.270Z,1.00
2019-05-25T08:35:26.337Z,1.20
2019-05-25T08:38:13.358Z,1.00
2019-05-25T08:41:01.253Z,1.00
2019-05-25T08:43:48.338Z,1.00
2019-05-25T08:46:36.292Z,1.23
2019-05-25T08:49:23.888Z,0.90
2019-05-25T08:52:11.412Z,0.93
2019-05-25T08:54:59.235Z,0.70
2019-05-25T08:57:46.454Z,0.70
2019-05-25T09:00:34.323Z,0.90
2019-05-25T09:03:21.711Z,1.10
2019-05-25T09:06:09.497Z,0.90
2019-05-25T09:08:57.237Z,0.90
2019-05-25T09:11:45.138Z,1.20
2019-05-25T09:14:32.410Z,0.80
2019-05-25T09:17:19.902Z,0.90
2019-05-25T09:20:07.655Z,1.10
2019-05-25T09:22:55.403Z,0.87
2019-05-25T09:25:42.909Z,1.10
2019-05-25T09:28:30.815Z,1.07
2019-05-25T09:31:18.711Z,1.20
2019-05-25T09:34:05.974Z,0.87
2019-05-25T09:36:57.363Z,0.90
2019-05-25T09:39:45.356Z,0.80
2019-05-25T09:42:33.752Z,0.90
2019-05-25T09:45:25.350Z,0.80
2019-05-25T09:48:16.356Z,0.83
2019-05-25T09:51:03.894Z,0.80
2019-05-25T09:53:51.214Z,0.90
2019-05-25T09:56:38.740Z,0.90
2019-05-25T09:59:26.514Z,0.90
2019-05-25T10:02:14.234Z,0.70
2019-05-25T10:05:02.050Z,0.70
2019-05-25T10:07:49.510Z,0.87
2019-05-25T10:10:37.983Z,0.60
2019-05-25T10:13:28.928Z,0.70
2019-05-25T10:16:16.769Z,0.70
2019-05-25T10:19:04.297Z,0.80
2019-05-25T10:21:52.566Z,1.00
2019-05-25T10:24:44.321Z,0.70
2019-05-25T10:27:38.896Z,0.60
2019-05-25T10:30:31.461Z,0.63
2019-05-25T10:33:26.089Z,0.40
2019-05-25T10:36:17.634Z,0.60
2019-05-25T10:39:11.489Z,0.53
2019-05-25T10:42:05.386Z,0.60
2019-05-25T10:44:56.284Z,0.60
2019-05-25T10:47:44.108Z,0.50
2019-05-25T10:50:38.689Z,0.80
2019-05-25T10:53:27.334Z,0.80
2019-05-25T10:56:16.700Z,0.60
2019-05-25T10:59:08.107Z,0.50
2019-05-25T11:01:59.258Z,0.60
2019-05-25T11:04:50.412Z,0.63
2019-05-25T11:07:40.484Z,0.80
2019-05-25T11:10:28.009Z,0.83
2019-05-25T11:13:21.259Z,1.00
2019-05-25T11:16:11.532Z,1.03
2019-05-25T11:19:04.088Z,1.00
2019-05-25T11:21:55.278Z,0.87
2019-05-25T11:24:46.587Z,1.10
2019-05-25T11:27:54.674Z,1.40
2019-05-25T11:30:52.019Z,1.10
2019-05-25T11:40:56.605Z,1.23
2019-05-25T11:43:54.462Z,0.83
2019-05-25T11:46:44.109Z,1.00
2019-05-25T11:49:36.381Z,0.90
2019-05-25T11:55:55.276Z,1.03
2019-05-25T11:58:47.354Z,1.13
2019-05-25T12:01:52.818Z,0.80
2019-05-25T12:04:41.392Z,0.77
2019-05-25T12:07:38.112Z,1.17
2019-05-25T12:17:38.517Z,0.90
2019-05-25T12:20:26.343Z,1.00
2019-05-25T12:23:26.756Z,1.00
2019-05-25T12:26:17.551Z,1.27
2019-05-25T12:29:05.376Z,0.90
2019-05-25T12:38:41.102Z,1.20
2019-05-25T12:41:54.207Z,1.17
2019-05-25T12:44:46.940Z,1.00
2019-05-25T12:47:34.850Z,1.40
2019-05-25T12:50:26.175Z,0.80
2019-05-25T12:53:14.216Z,1.07
2019-05-25T12:56:05.517Z,0.87
2019-05-25T12:58:57.130Z,0.90
2019-05-25T13:01:59.437Z,0.90
2019-05-25T13:04:49.096Z,1.03
2019-05-25T13:11:03.573Z,0.67
2019-05-25T13:14:26.524Z,0.80
2019-05-25T13:21:06.031Z,1.10
2019-05-25T13:27:41.004Z,0.97
2019-05-25T13:30:37.668Z,0.80
2019-05-25T13:33:43.300Z,0.80
2019-05-25T13:36:39.006Z,0.73
2019-05-25T13:39:34.375Z,0.73
2019-05-25T13:49:13.305Z,0.70
2019-05-25T14:04:58.355Z,0.80
2019-05-25T14:07:46.314Z,1.00
2019-05-25T14:11:09.476Z,0.90
2019-05-25T14:21:16.662Z,0.90
2019-05-25T14:30:42.566Z,0.77
2019-05-25T14:37:19.822Z,0.80
2019-05-25T14:40:25.144Z,0.80
2019-05-25T14:43:39.785Z,0.80
2019-05-25T14:46:38.663Z,0.80
2019-05-25T14:56:03.314Z,0.63
2019-05-25T15:09:07.930Z,0.60
2019-05-25T15:12:29.134Z,0.93
2019-05-25T15:15:24.931Z,0.60
2019-05-25T15:18:33.945Z,0.70
2019-05-25T15:21:32.659Z,0.60
2019-05-25T15:24:17.432Z,0.63
2019-05-25T15:37:15.614Z,0.53
2019-05-25T15:47:13.856Z,0.50
2019-05-25T15:50:38.626Z,0.70
2019-05-25T15:53:47.257Z,0.60
2019-05-25T16:07:22.063Z,0.60
2019-05-25T16:10:10.857Z,0.70
2019-05-25T16:13:25.492Z,0.60
2019-05-25T16:23:45.114Z,0.80
2019-05-25T16:30:14.812Z,0.60
2019-05-25T16:33:12.507Z,0.93
2019-05-25T16:39:39.483Z,0.60
2019-05-25T16:42:45.645Z,0.70
2019-05-25T16:48:57.117Z,0.70
2019-05-25T16:51:58.819Z,0.60
2019-05-25T16:55:21.473Z,0.60
2019-05-25T16:57:52.062Z,0.90
2019-05-25T17:00:43.624Z,0.70
2019-05-25T17:03:56.777Z,0.60
2019-05-25T17:06:59.785Z,0.60
2019-05-25T17:19:32.023Z,0.60
2019-05-25T17:22:39.581Z,0.67
2019-05-25T17:26:17.181Z,0.80
2019-05-25T17:32:41.838Z,0.50
2019-05-25T17:39:35.788Z,0.60
2019-05-25T17:42:39.169Z,0.50
2019-05-25T17:45:33.750Z,0.60
2019-05-25T17:48:23.374Z,0.43
2019-05-25T17:55:10.909Z,0.50
2019-05-25T17:58:36.718Z,0.50
2019-05-25T18:01:27.830Z,0.70
2019-05-25T18:04:18.291Z,0.70
2019-05-25T18:10:27.203Z,0.50
2019-05-25T18:17:30.763Z,0.53
2019-05-25T18:20:55.189Z,0.60
2019-05-25T18:24:18.765Z,0.60
2019-05-25T18:27:18.878Z,0.60
2019-05-25T18:33:47.841Z,0.60
2019-05-25T18:36:41.808Z,0.70
2019-05-25T18:39:39.701Z,0.80
2019-05-25T18:42:30.179Z,0.80
2019-05-25T18:45:25.351Z,1.10
2019-05-25T19:01:56.855Z,0.77
2019-05-25T19:08:16.087Z,0.80
2019-05-25T19:14:22.048Z,0.63
2019-05-25T19:17:49.478Z,0.77
2019-05-25T19:20:39.863Z,0.70
2019-05-25T19:37:20.280Z,0.60
2019-05-25T19:40:19.148Z,0.60
2019-05-25T19:43:11.570Z,0.60
2019-05-25T19:49:29.787Z,0.67
2019-05-25T19:52:18.146Z,0.70
2019-05-25T19:55:16.206Z,0.80
2019-05-25T19:58:22.124Z,0.80
2019-05-25T20:01:21.719Z,0.80
2019-05-25T20:04:15.378Z,0.80
2019-05-25T20:07:03.943Z,0.83
2019-05-25T20:09:51.979Z,0.70
2019-05-25T20:12:57.408Z,0.90
2019-05-25T20:19:23.512Z,0.70
2019-05-25T20:22:19.198Z,0.80
2019-05-25T20:25:07.155Z,0.90
2019-05-25T20:27:58.822Z,0.63
2019-05-25T20:34:30.842Z,0.70
2019-05-25T20:37:21.592Z,0.60
2019-05-25T20:43:17.922Z,0.73
2019-05-25T20:46:05.908Z,0.57
2019-05-25T20:55:15.241Z,0.80
2019-05-25T20:58:07.188Z,0.60
2019-05-25T21:01:13.918Z,0.70
2019-05-25T21:04:10.206Z,0.73
2019-05-25T21:07:25.109Z,0.60
2019-05-25T21:10:18.850Z,0.77
2019-05-25T21:19:51.535Z,0.70
2019-05-25T21:22:52.678Z,0.70
2019-05-25T21:29:15.801Z,0.70
2019-05-25T21:32:15.291Z,0.70
2019-05-25T21:35:10.076Z,0.70
2019-05-25T21:48:50.483Z,0.70
2019-05-25T21:51:38.774Z,0.60
2019-05-25T21:54:55.715Z,0.60
2019-05-25T22:01:36.360Z,0.80
2019-05-25T22:04:33.559Z,0.53
2019-05-25T22:07:24.898Z,1.20
2019-05-25T22:10:16.275Z,0.83
2019-05-25T22:13:05.666Z,1.03
2019-05-25T22:16:25.989Z,0.50
2019-05-25T22:19:18.050Z,0.50
2019-05-25T22:22:13.663Z,0.57
2019-05-25T22:25:05.378Z,0.67
2019-05-25T22:27:56.034Z,0.53
2019-05-25T22:30:50.649Z,0.50
2019-05-25T22:33:40.563Z,0.60
2019-05-25T22:36:40.435Z,0.60
2019-05-25T22:39:25.469Z,0.83
2019-05-25T22:42:13.421Z,0.60
2019-05-25T22:45:04.727Z,0.60
2019-05-25T22:48:32.753Z,0.60
2019-05-25T22:51:20.189Z,0.70
2019-05-25T22:54:10.997Z,0.60
2019-05-25T22:57:01.780Z,0.50
2019-05-25T22:59:53.065Z,0.50
2019-05-25T23:02:40.802Z,0.50
2019-05-25T23:05:29.863Z,0.60
2019-05-25T23:08:21.270Z,0.57
2019-05-25T23:11:44.359Z,0.50
2019-05-25T23:14:48.963Z,0.63
2019-05-25T23:21:17.880Z,0.70
2019-05-25T23:24:11.643Z,0.60
2019-05-25T23:30:16.351Z,0.60
2019-05-25T23:33:16.660Z,0.53
2019-05-25T23:39:20.834Z,0.60
2019-05-25T23:42:11.588Z,0.73
2019-05-25T23:45:03.290Z,0.70
2019-05-25T23:47:56.123Z,0.60
2019-05-25T23:57:45.970Z,0.60
